createdAt,value
2022-12-08T00:01:52.044Z,16.90
2022-12-08T00:05:02.825Z,15.27
2022-12-08T00:08:09.598Z,16.90
2022-12-08T00:11:04.532Z,16.97
2022-12-08T00:13:55.177Z,19.07
2022-12-08T00:16:48.999Z,18.13
2022-12-08T00:19:42.928Z,17.80
2022-12-08T00:22:32.326Z,19.33
2022-12-08T00:25:22.039Z,20.40
2022-12-08T00:28:14.511Z,22.40
2022-12-08T00:33:45.434Z,18.33
2022-12-08T00:36:34.200Z,19.67
2022-12-08T00:39:24.803Z,19.40
2022-12-08T00:42:13.426Z,20.23
2022-12-08T00:45:07.573Z,18.83
2022-12-08T00:47:58.449Z,19.60
2022-12-08T00:50:51.290Z,17.33
2022-12-08T00:53:42.609Z,15.30
2022-12-08T00:56:31.248Z,17.23
2022-12-08T00:59:24.659Z,15.53
2022-12-08T01:02:18.993Z,16.93
2022-12-08T01:05:09.307Z,14.23
2022-12-08T01:07:57.926Z,14.77
2022-12-08T01:10:46.589Z,14.90
2022-12-08T01:13:39.642Z,15.83
2022-12-08T01:16:34.261Z,13.03
2022-12-08T01:19:30.710Z,12.17
2022-12-08T01:22:19.359Z,12.67
2022-12-08T01:25:08.193Z,12.10
2022-12-08T01:27:56.844Z,10.53
2022-12-08T01:30:47.177Z,9.73
2022-12-08T01:33:35.807Z,14.90
2022-12-08T01:36:29.295Z,12.63
2022-12-08T01:39:18.527Z,10.60
2022-12-08T01:42:08.367Z,10.30
2022-12-08T01:44:59.170Z,9.53
2022-12-08T01:47:50.056Z,9.93
2022-12-08T01:50:40.208Z,9.50
2022-12-08T01:53:35.728Z,9.67
2022-12-08T01:56:35.470Z,13.03
2022-12-08T01:59:25.410Z,9.87
2022-12-08T02:02:16.475Z,9.70
2022-12-08T02:05:05.396Z,9.43
2022-12-08T02:07:54.463Z,8.80
2022-12-08T02:10:52.449Z,8.50
2022-12-08T02:13:42.507Z,7.10
2022-12-08T02:16:38.504Z,6.57
2022-12-08T02:19:44.539Z,5.97
2022-12-08T02:22:36.753Z,6.43
2022-12-08T02:25:30.068Z,7.00
2022-12-08T02:28:32.247Z,6.47
2022-12-08T02:31:27.371Z,8.37
2022-12-08T02:34:25.701Z,7.40
2022-12-08T02:37:20.771Z,7.43
2022-12-08T02:40:11.702Z,7.50
2022-12-08T02:43:05.299Z,7.80
2022-12-08T02:45:55.769Z,7.43
2022-12-08T02:48:44.428Z,6.90
2022-12-08T02:51:34.626Z,8.53
2022-12-08T02:54:25.033Z,8.87
2022-12-08T02:57:24.539Z,7.90
2022-12-08T03:00:30.961Z,7.77
2022-12-08T03:03:32.983Z,8.33
2022-12-08T03:06:26.731Z,7.60
2022-12-08T03:09:21.937Z,6.80
2022-12-08T03:12:15.696Z,9.27
2022-12-08T03:15:11.572Z,7.30
2022-12-08T03:18:03.869Z,9.13
2022-12-08T03:20:52.755Z,7.90
2022-12-08T03:23:44.262Z,7.47
2022-12-08T03:26:36.386Z,8.57
2022-12-08T03:29:29.531Z,7.73
2022-12-08T03:32:25.100Z,6.87
2022-12-08T03:35:15.829Z,6.00
2022-12-08T03:38:10.675Z,6.67
2022-12-08T03:41:20.432Z,6.80
2022-12-08T03:44:13.152Z,5.60
2022-12-08T03:47:04.768Z,5.40
2022-12-08T03:49:53.470Z,6.10
2022-12-08T03:52:51.034Z,6.43
2022-12-08T03:55:39.614Z,6.17
2022-12-08T03:58:37.684Z,5.50
2022-12-08T04:01:27.722Z,5.53
2022-12-08T04:04:18.909Z,5.23
2022-12-08T04:07:08.578Z,8.87
2022-12-08T04:10:00.194Z,5.77
2022-12-08T04:12:48.704Z,6.07
2022-12-08T04:15:40.319Z,6.00
2022-12-08T04:18:32.193Z,5.97
2022-12-08T04:21:22.005Z,6.23
2022-12-08T04:24:17.962Z,5.83
2022-12-08T04:27:12.083Z,5.50
2022-12-08T04:30:00.615Z,5.70
2022-12-08T04:32:50.441Z,4.83
2022-12-08T04:35:40.348Z,5.30
2022-12-08T04:38:30.572Z,5.40
2022-12-08T04:41:19.139Z,5.70
2022-12-08T04:44:07.941Z,5.03
2022-12-08T04:47:02.877Z,5.30
2022-12-08T04:49:53.611Z,5.33
2022-12-08T04:52:45.676Z,4.13
2022-12-08T04:55:34.264Z,4.07
2022-12-08T04:58:27.212Z,4.40
2022-12-08T05:01:16.181Z,4.17
2022-12-08T05:04:11.218Z,4.73
2022-12-08T05:07:01.405Z,4.03
2022-12-08T05:09:51.267Z,5.00
2022-12-08T05:12:43.738Z,4.27
2022-12-08T05:15:32.362Z,4.77
2022-12-08T05:18:20.986Z,4.00
2022-12-08T05:21:11.937Z,4.10
2022-12-08T05:24:00.462Z,3.77
2022-12-08T05:26:50.430Z,3.80
2022-12-08T05:29:41.947Z,3.40
2022-12-08T05:32:34.532Z,3.77
2022-12-08T05:35:23.069Z,4.70
2022-12-08T05:38:14.619Z,4.10
2022-12-08T05:41:07.867Z,4.20
2022-12-08T05:43:57.907Z,5.93
2022-12-08T05:46:48.565Z,4.30
2022-12-08T05:49:38.165Z,4.43
2022-12-08T05:52:29.985Z,3.93
2022-12-08T05:55:20.950Z,4.17
2022-12-08T05:58:14.356Z,3.93
2022-12-08T06:01:06.919Z,4.07
2022-12-08T06:03:55.995Z,4.20
2022-12-08T06:06:44.584Z,3.93
2022-12-08T06:09:35.075Z,3.80
2022-12-08T06:12:26.989Z,3.50
2022-12-08T06:15:21.157Z,3.20
2022-12-08T06:18:12.690Z,3.00
2022-12-08T06:21:10.809Z,2.90
2022-12-08T06:24:03.457Z,2.50
2022-12-08T06:26:52.203Z,2.47
2022-12-08T06:29:43.162Z,2.60
2022-12-08T06:32:36.480Z,2.40
2022-12-08T06:35:26.373Z,2.67
2022-12-08T06:38:16.098Z,2.53
2022-12-08T06:41:08.334Z,2.63
2022-12-08T06:43:57.989Z,2.80
2022-12-08T06:46:51.731Z,3.37
2022-12-08T06:49:46.028Z,3.10
2022-12-08T06:53:00.813Z,3.73
2022-12-08T06:55:59.784Z,3.13
2022-12-08T06:58:52.305Z,4.27
2022-12-08T07:01:51.878Z,4.57
2022-12-08T07:04:43.406Z,4.30
2022-12-08T07:07:36.859Z,5.00
2022-12-08T07:10:27.886Z,4.97
2022-12-08T07:13:19.231Z,4.83
2022-12-08T07:16:11.391Z,5.43
2022-12-08T07:19:02.668Z,6.40
2022-12-08T07:21:52.298Z,7.10
2022-12-08T07:24:40.950Z,6.17
2022-12-08T07:27:30.888Z,5.67
2022-12-08T07:30:21.223Z,6.10
2022-12-08T07:33:12.697Z,6.43
2022-12-08T07:36:04.470Z,5.80
2022-12-08T07:38:56.530Z,5.53
2022-12-08T07:41:53.908Z,4.97
2022-12-08T07:44:46.658Z,5.93
2022-12-08T07:47:36.871Z,5.50
2022-12-08T07:50:25.400Z,6.40
2022-12-08T07:53:14.410Z,5.57
2022-12-08T07:56:02.975Z,9.47
2022-12-08T07:58:56.875Z,6.70
2022-12-08T08:02:06.337Z,7.07
2022-12-08T08:04:59.533Z,6.93
2022-12-08T08:07:50.982Z,6.83
2022-12-08T08:10:39.581Z,7.30
2022-12-08T08:13:31.461Z,7.27
2022-12-08T08:16:20.683Z,6.40
2022-12-08T08:19:10.743Z,6.57
2022-12-08T08:22:02.245Z,6.83
2022-12-08T08:24:50.867Z,6.83
2022-12-08T08:27:41.111Z,8.50
2022-12-08T08:30:33.533Z,7.73
2022-12-08T08:33:23.371Z,6.53
2022-12-08T08:36:14.789Z,5.63
2022-12-08T08:39:08.084Z,6.13
2022-12-08T08:42:09.510Z,5.30
2022-12-08T08:44:58.059Z,5.03
2022-12-08T08:47:47.973Z,4.87
2022-12-08T08:50:39.530Z,5.53
2022-12-08T08:53:32.615Z,6.80
2022-12-08T08:56:21.607Z,4.70
2022-12-08T08:59:11.112Z,4.83
2022-12-08T09:02:00.880Z,4.93
2022-12-08T09:04:49.736Z,4.30
2022-12-08T09:07:38.389Z,4.57
2022-12-08T09:10:28.964Z,4.37
2022-12-08T09:13:17.518Z,4.83
2022-12-08T09:16:09.904Z,4.40
2022-12-08T09:18:58.522Z,4.70
2022-12-08T09:21:49.501Z,4.40
2022-12-08T09:24:39.815Z,4.33
2022-12-08T09:27:31.020Z,4.63
2022-12-08T09:30:21.492Z,5.33
2022-12-08T09:33:13.080Z,4.43
2022-12-08T09:36:05.263Z,4.50
2022-12-08T09:38:54.709Z,5.63
2022-12-08T09:41:48.573Z,5.30
2022-12-08T09:44:56.346Z,5.83
2022-12-08T09:48:00.164Z,4.67
2022-12-08T09:50:53.670Z,5.13
2022-12-08T09:53:53.405Z,4.77
2022-12-08T09:56:43.968Z,5.40
2022-12-08T09:59:36.239Z,5.00
2022-12-08T10:02:35.964Z,5.60
2022-12-08T10:05:29.801Z,5.60
2022-12-08T10:08:26.303Z,5.40
2022-12-08T10:11:17.004Z,6.27
2022-12-08T10:14:12.162Z,4.87
2022-12-08T10:17:03.121Z,5.10
2022-12-08T10:19:57.221Z,5.20
2022-12-08T10:22:48.527Z,5.30
2022-12-08T10:25:38.896Z,5.63
2022-12-08T10:28:27.473Z,4.83
2022-12-08T10:31:26.252Z,5.57
2022-12-08T10:34:26.033Z,5.10
2022-12-08T10:37:20.632Z,5.43
2022-12-08T10:40:14.948Z,5.30
2022-12-08T10:43:10.128Z,4.93
2022-12-08T10:46:09.415Z,4.90
2022-12-08T10:49:17.307Z,5.23
2022-12-08T10:52:10.745Z,6.03
2022-12-08T10:55:02.214Z,5.77
2022-12-08T10:57:52.062Z,4.80
2022-12-08T11:00:46.877Z,5.00
2022-12-08T11:03:40.415Z,5.67
2022-12-08T11:06:36.120Z,4.70
2022-12-08T11:09:31.957Z,4.57
2022-12-08T11:12:28.755Z,4.17
2022-12-08T11:15:23.847Z,4.57
2022-12-08T11:18:23.398Z,4.23
2022-12-08T11:21:13.267Z,4.10
2022-12-08T11:24:11.697Z,4.33
2022-12-08T11:27:02.453Z,5.27
2022-12-08T11:29:59.627Z,5.47
2022-12-08T11:32:59.592Z,4.87
2022-12-08T11:35:51.737Z,4.30
2022-12-08T11:38:43.996Z,5.73
2022-12-08T11:41:38.861Z,5.03
2022-12-08T11:44:35.157Z,5.13
2022-12-08T11:47:26.338Z,14.20
2022-12-08T11:50:20.013Z,7.40
2022-12-08T11:53:12.713Z,5.80
2022-12-08T11:56:07.246Z,5.57
2022-12-08T11:59:02.504Z,5.50
2022-12-08T12:01:51.262Z,6.07
2022-12-08T12:04:45.776Z,6.10
2022-12-08T12:07:48.489Z,5.40
2022-12-08T12:10:47.804Z,6.20
2022-12-08T12:13:43.613Z,6.53
2022-12-08T12:16:48.597Z,5.90
2022-12-08T12:19:44.023Z,6.63
2022-12-08T12:22:37.745Z,6.17
2022-12-08T12:25:30.255Z,6.50
2022-12-08T12:28:24.217Z,7.10
2022-12-08T12:31:15.292Z,6.23
2022-12-08T12:34:09.462Z,5.73
2022-12-08T12:37:06.833Z,5.90
2022-12-08T12:40:00.497Z,5.53
2022-12-08T12:42:50.806Z,7.37
2022-12-08T12:45:45.604Z,6.23
2022-12-08T12:48:34.265Z,7.17
2022-12-08T12:51:48.116Z,6.47
2022-12-08T12:54:36.691Z,6.10
2022-12-08T12:57:37.903Z,6.90
2022-12-08T13:00:40.415Z,6.20
2022-12-08T13:03:32.236Z,6.50
2022-12-08T13:06:25.414Z,6.70
2022-12-08T13:09:36.406Z,6.50
2022-12-08T13:12:26.291Z,9.60
2022-12-08T13:15:24.872Z,6.93
2022-12-08T13:18:23.659Z,7.33
2022-12-08T13:21:21.145Z,7.40
2022-12-08T13:24:19.860Z,7.87
2022-12-08T13:27:24.223Z,7.50
2022-12-08T13:30:34.065Z,7.30
2022-12-08T13:33:35.521Z,6.27
2022-12-08T13:36:31.096Z,6.47
2022-12-08T13:39:23.524Z,6.73
2022-12-08T13:42:17.648Z,5.53
2022-12-08T13:45:25.563Z,6.47
2022-12-08T13:49:18.538Z,6.63
2022-12-08T13:56:16.679Z,6.70
2022-12-08T13:58:07.127Z,6.20
2022-12-08T14:00:58.426Z,7.27
2022-12-08T14:04:12.749Z,6.10
2022-12-08T14:07:01.637Z,7.10
2022-12-08T14:09:52.160Z,7.70
2022-12-08T14:12:44.655Z,6.90
2022-12-08T14:15:39.535Z,6.43
2022-12-08T14:18:35.285Z,7.20
2022-12-08T14:21:36.564Z,6.90
2022-12-08T14:24:32.215Z,7.40
2022-12-08T14:27:32.153Z,7.47
2022-12-08T14:30:21.931Z,6.30
2022-12-08T14:33:22.520Z,6.43
2022-12-08T14:36:16.789Z,7.33
2022-12-08T14:39:05.428Z,7.37
2022-12-08T14:42:04.220Z,6.40
2022-12-08T14:45:00.650Z,6.97
2022-12-08T14:47:51.935Z,6.60
2022-12-08T14:50:43.382Z,7.70
2022-12-08T14:53:40.851Z,7.93
2022-12-08T14:56:35.914Z,7.70
2022-12-08T14:59:30.102Z,8.10
2022-12-08T15:02:34.549Z,6.57
2022-12-08T15:05:26.258Z,6.97
2022-12-08T15:08:20.154Z,6.80
2022-12-08T15:11:15.230Z,6.80
2022-12-08T15:14:05.115Z,7.83
2022-12-08T15:16:57.877Z,8.47
2022-12-08T15:19:56.732Z,7.50
2022-12-08T15:22:45.350Z,7.37
2022-12-08T15:25:36.743Z,8.03
2022-12-08T15:28:29.672Z,8.27
2022-12-08T15:31:21.253Z,7.20
2022-12-08T15:34:13.601Z,7.50
2022-12-08T15:37:02.184Z,8.60
2022-12-08T15:39:54.548Z,9.80
2022-12-08T15:42:43.139Z,9.93
2022-12-08T15:45:33.898Z,9.90
2022-12-08T15:48:24.147Z,8.40
2022-12-08T15:51:14.080Z,8.10
2022-12-08T15:54:04.710Z,10.20
2022-12-08T15:57:18.623Z,11.13
2022-12-08T16:00:15.388Z,9.50
2022-12-08T16:04:09.320Z,13.63
2022-12-08T16:07:19.668Z,11.50
2022-12-08T16:09:59.757Z,10.17
2022-12-08T16:16:22.583Z,11.63
2022-12-08T16:19:20.744Z,12.30
2022-12-08T16:22:51.793Z,12.07
2022-12-08T16:25:46.158Z,14.40
2022-12-08T16:28:53.939Z,12.27
2022-12-08T16:31:45.151Z,11.33
2022-12-08T16:34:33.769Z,12.40
2022-12-08T16:37:27.108Z,12.47
2022-12-08T16:40:17.352Z,13.10
2022-12-08T16:43:07.827Z,12.70
2022-12-08T16:45:58.558Z,12.13
2022-12-08T16:48:47.498Z,12.00
2022-12-08T16:51:36.152Z,14.17
2022-12-08T16:54:30.640Z,12.87
2022-12-08T16:57:19.196Z,10.70
2022-12-08T17:00:11.506Z,14.03
2022-12-08T17:03:00.424Z,13.30
2022-12-08T17:05:48.968Z,17.03
2022-12-08T17:08:39.991Z,16.30
2022-12-08T17:11:36.030Z,17.17
2022-12-08T17:14:30.545Z,18.70
2022-12-08T17:17:19.090Z,19.50
2022-12-08T17:20:09.433Z,18.70
2022-12-08T17:22:58.725Z,18.47
2022-12-08T17:25:58.636Z,15.90
2022-12-08T17:29:01.274Z,14.73
2022-12-08T17:31:52.319Z,17.73
2022-12-08T17:34:46.170Z,17.93
2022-12-08T17:37:46.461Z,16.77
2022-12-08T17:40:39.258Z,17.60
2022-12-08T17:43:27.925Z,18.07
2022-12-08T17:46:22.730Z,20.03
2022-12-08T17:49:11.616Z,16.73
2022-12-08T17:52:04.300Z,16.77
2022-12-08T17:54:52.885Z,16.50
2022-12-08T17:57:41.632Z,17.27
2022-12-08T18:00:31.968Z,16.87
2022-12-08T18:03:21.893Z,16.87
2022-12-08T18:06:14.052Z,22.73
2022-12-08T18:09:02.870Z,18.60
2022-12-08T18:11:51.444Z,17.00
2022-12-08T18:14:42.736Z,17.83
2022-12-08T18:17:31.369Z,16.60
2022-12-08T18:20:21.656Z,15.30
2022-12-08T18:23:10.215Z,17.27
2022-12-08T18:25:58.972Z,17.97
2022-12-08T18:28:48.914Z,14.40
2022-12-08T18:31:40.253Z,17.87
2022-12-08T18:37:09.562Z,17.70
2022-12-08T18:40:00.701Z,18.40
2022-12-08T18:42:52.738Z,17.30
2022-12-08T18:45:41.391Z,17.93
2022-12-08T18:48:31.903Z,18.40
2022-12-08T18:51:24.510Z,17.90
2022-12-08T18:54:16.798Z,18.73
2022-12-08T18:57:10.913Z,16.10
2022-12-08T19:00:02.560Z,17.87
2022-12-08T19:02:55.303Z,18.43
2022-12-08T19:05:45.137Z,17.70
2022-12-08T19:08:39.952Z,19.40
2022-12-08T19:11:30.127Z,19.97
2022-12-08T19:14:27.472Z,21.60
2022-12-08T19:17:18.697Z,20.53
2022-12-08T19:20:11.664Z,20.00
2022-12-08T19:23:04.651Z,18.70
2022-12-08T19:25:56.053Z,20.60
2022-12-08T19:28:48.295Z,18.83
2022-12-08T19:31:39.864Z,19.20
2022-12-08T19:34:30.049Z,19.07
2022-12-08T19:37:18.744Z,19.10
2022-12-08T19:40:25.600Z,19.33
2022-12-08T19:43:34.173Z,21.07
2022-12-08T19:46:25.245Z,18.60
2022-12-08T19:49:19.751Z,19.40
2022-12-08T19:52:10.086Z,20.37
2022-12-08T19:55:01.925Z,18.97
2022-12-08T19:57:50.650Z,19.50
2022-12-08T20:00:39.956Z,20.37
2022-12-08T20:03:30.941Z,19.87
2022-12-08T20:06:28.671Z,17.30
2022-12-08T20:09:19.243Z,18.17
2022-12-08T20:12:09.552Z,18.87
2022-12-08T20:15:01.100Z,18.83
2022-12-08T20:17:49.692Z,18.70
2022-12-08T20:20:41.668Z,20.20
2022-12-08T20:23:30.244Z,21.33
2022-12-08T20:26:21.415Z,17.97
2022-12-08T20:29:11.653Z,18.50
2022-12-08T20:32:02.528Z,19.97
2022-12-08T20:34:51.340Z,17.97
2022-12-08T20:37:45.759Z,20.10
2022-12-08T20:40:44.220Z,20.60
2022-12-08T20:43:32.819Z,21.20
2022-12-08T20:46:27.059Z,19.07
2022-12-08T20:49:15.852Z,21.97
2022-12-08T20:52:04.412Z,19.73
2022-12-08T20:54:54.413Z,21.80
2022-12-08T20:57:54.013Z,22.17
2022-12-08T21:00:45.367Z,20.57
2022-12-08T21:03:34.656Z,20.53
2022-12-08T21:06:24.457Z,20.50
2022-12-08T21:09:19.718Z,21.30
2022-12-08T21:12:17.927Z,17.80
2022-12-08T21:15:07.860Z,21.93
2022-12-08T21:17:59.535Z,22.37
2022-12-08T21:20:51.593Z,22.47
2022-12-08T21:23:44.724Z,21.50
2022-12-08T21:26:39.449Z,22.43
2022-12-08T21:29:32.790Z,20.70
2022-12-08T21:32:28.753Z,24.80
2022-12-08T21:35:19.255Z,20.43
2022-12-08T21:38:12.057Z,26.00
2022-12-08T21:41:03.503Z,28.10
2022-12-08T21:43:52.260Z,25.07
2022-12-08T21:46:47.066Z,27.30
2022-12-08T21:49:37.893Z,28.80
2022-12-08T21:52:28.877Z,32.83
2022-12-08T21:55:20.728Z,45.87
2022-12-08T21:58:11.885Z,35.33
2022-12-08T22:01:06.452Z,27.30
2022-12-08T22:04:00.969Z,28.00
2022-12-08T22:06:49.749Z,25.10
2022-12-08T22:09:38.696Z,26.80
2022-12-08T22:12:27.576Z,26.67
2022-12-08T22:15:18.246Z,22.20
2022-12-08T22:18:08.521Z,24.17
2022-12-08T22:20:59.824Z,21.90
2022-12-08T22:23:52.361Z,23.40
2022-12-08T22:26:42.914Z,22.23
2022-12-08T22:29:34.358Z,24.53
2022-12-08T22:32:23.366Z,22.13
2022-12-08T22:35:12.168Z,22.83
2022-12-08T22:38:10.046Z,23.07
2022-12-08T22:41:00.185Z,20.30
2022-12-08T22:43:54.160Z,20.87
2022-12-08T22:46:42.893Z,23.07
2022-12-08T22:49:35.744Z,23.90
2022-12-08T22:52:34.593Z,22.37
2022-12-08T22:55:24.667Z,22.40
2022-12-08T22:58:13.492Z,20.67
2022-12-08T23:01:03.888Z,23.10
2022-12-08T23:03:52.739Z,28.80
2022-12-08T23:06:41.432Z,22.63
2022-12-08T23:09:31.199Z,30.57
2022-12-08T23:12:25.887Z,27.77
2022-12-08T23:15:19.118Z,25.53
2022-12-08T23:18:07.994Z,25.27
2022-12-08T23:20:56.684Z,24.80
2022-12-08T23:23:45.271Z,24.50
2022-12-08T23:26:35.341Z,25.20
2022-12-08T23:29:26.933Z,22.37
2022-12-08T23:32:18.003Z,22.57
2022-12-08T23:35:07.164Z,24.03
2022-12-08T23:37:57.421Z,23.53
2022-12-08T23:40:46.002Z,21.10
2022-12-08T23:43:34.657Z,19.70
2022-12-08T23:46:27.583Z,24.53
2022-12-08T23:49:21.205Z,23.63
2022-12-08T23:52:16.070Z,26.70
2022-12-08T23:55:05.112Z,21.83
2022-12-08T23:58:02.610Z,25.97
